Time;durP1;ratioP1;P1;durP2;ratioP2;P2;SDS_P1;SDS_P2;PMS_P1;PMS_P2;Temp;Humidity;BMP_temperature;BMP_pressure;BME280_temperature;BME280_humidity;BME280_pressure;Samples;Min_cycle;Max_cycle;Signal;HPM_P1;HPM_P2
2022/07/09 00:00:33;;;;;;;4.1;3.1;;;;;;;;;;;;;
2022/07/09 00:03:00;;;;;;;4.5;2.8;;;;;;;;;;;;;
2022/07/09 00:05:25;;;;;;;3.1;2.8;;;;;;;;;;;;;
2022/07/09 00:07:51;;;;;;;4.1;3;;;;;;;;;;;;;
2022/07/09 00:10:16;;;;;;;3.5;2.4;;;;;;;;;;;;;
2022/07/09 00:12:42;;;;;;;3.5;2.4;;;;;;;;;;;;;
2022/07/09 00:15:07;;;;;;;4.4;2.7;;;;;;;;;;;;;
2022/07/09 00:17:32;;;;;;;3.7;2.6;;;;;;;;;;;;;
2022/07/09 00:19:57;;;;;;;3.8;3.1;;;;;;;;;;;;;
2022/07/09 00:22:25;;;;;;;4.2;2.9;;;;;;;;;;;;;
2022/07/09 00:24:50;;;;;;;5.6;2.9;;;;;;;;;;;;;
2022/07/09 00:27:15;;;;;;;3.3;2.7;;;;;;;;;;;;;
2022/07/09 00:29:40;;;;;;;4.1;2.5;;;;;;;;;;;;;
2022/07/09 00:32:06;;;;;;;4.3;2.8;;;;;;;;;;;;;
2022/07/09 00:34:31;;;;;;;4.7;2.9;;;;;;;;;;;;;
2022/07/09 00:37:01;;;;;;;3.5;2.8;;;;;;;;;;;;;
2022/07/09 00:39:26;;;;;;;2.9;2.5;;;;;;;;;;;;;
2022/07/09 00:41:51;;;;;;;4;2.7;;;;;;;;;;;;;
2022/07/09 00:44:16;;;;;;;5.1;3;;;;;;;;;;;;;
2022/07/09 00:46:42;;;;;;;4.6;3.1;;;;;;;;;;;;;
2022/07/09 00:49:07;;;;;;;4.7;2.6;;;;;;;;;;;;;
2022/07/09 00:51:33;;;;;;;2.8;2.6;;;;;;;;;;;;;
2022/07/09 00:53:58;;;;;;;6.5;2.9;;;;;;;;;;;;;
2022/07/09 00:56:23;;;;;;;4.1;2.4;;;;;;;;;;;;;
2022/07/09 00:58:48;;;;;;;4.4;2.6;;;;;;;;;;;;;
2022/07/09 01:01:16;;;;;;;3.4;2.5;;;;;;;;;;;;;
2022/07/09 01:03:41;;;;;;;4.7;2.7;;;;;;;;;;;;;
2022/07/09 01:06:07;;;;;;;4.6;3.2;;;;;;;;;;;;;
2022/07/09 01:08:32;;;;;;;3.1;2.5;;;;;;;;;;;;;
2022/07/09 01:10:57;;;;;;;4.1;2.9;;;;;;;;;;;;;
2022/07/09 01:13:22;;;;;;;3.5;2.7;;;;;;;;;;;;;
2022/07/09 01:15:50;;;;;;;4.5;2.8;;;;;;;;;;;;;
2022/07/09 01:18:15;;;;;;;4.6;2.7;;;;;;;;;;;;;
2022/07/09 01:20:40;;;;;;;4.7;2.7;;;;;;;;;;;;;
2022/07/09 01:23:05;;;;;;;3.8;2.5;;;;;;;;;;;;;
2022/07/09 01:25:31;;;;;;;5.1;2.9;;;;;;;;;;;;;
2022/07/09 01:27:56;;;;;;;4.3;2.6;;;;;;;;;;;;;
2022/07/09 01:30:23;;;;;;;4.1;2.9;;;;;;;;;;;;;
2022/07/09 01:32:48;;;;;;;4.1;2.8;;;;;;;;;;;;;
2022/07/09 01:35:14;;;;;;;2.9;2.6;;;;;;;;;;;;;
2022/07/09 01:37:39;;;;;;;3.7;2.6;;;;;;;;;;;;;
2022/07/09 01:40:05;;;;;;;5.4;2.7;;;;;;;;;;;;;
2022/07/09 01:42:30;;;;;;;5;2.7;;;;;;;;;;;;;
2022/07/09 01:44:56;;;;;;;4;3.2;;;;;;;;;;;;;
2022/07/09 01:47:21;;;;;;;3.9;2.5;;;;;;;;;;;;;
2022/07/09 01:49:47;;;;;;;3.8;2.6;;;;;;;;;;;;;
2022/07/09 01:52:12;;;;;;;3.7;2.8;;;;;;;;;;;;;
2022/07/09 01:54:38;;;;;;;3.9;2.9;;;;;;;;;;;;;
2022/07/09 01:57:02;;;;;;;4.6;2.7;;;;;;;;;;;;;
2022/07/09 01:59:28;;;;;;;5;3;;;;;;;;;;;;;
2022/07/09 02:01:53;;;;;;;6;3.2;;;;;;;;;;;;;
2022/07/09 02:04:21;;;;;;;2.8;2.6;;;;;;;;;;;;;
2022/07/09 02:06:46;;;;;;;3.6;2.8;;;;;;;;;;;;;
2022/07/09 02:09:12;;;;;;;4.4;3;;;;;;;;;;;;;
2022/07/09 02:11:37;;;;;;;3.3;2.7;;;;;;;;;;;;;
2022/07/09 02:14:04;;;;;;;6.2;3.1;;;;;;;;;;;;;
2022/07/09 02:16:28;;;;;;;4.1;2.9;;;;;;;;;;;;;
2022/07/09 02:18:55;;;;;;;5.4;3.2;;;;;;;;;;;;;
2022/07/09 02:21:19;;;;;;;3.8;2.7;;;;;;;;;;;;;
2022/07/09 02:23:45;;;;;;;4.2;2.9;;;;;;;;;;;;;
2022/07/09 02:26:10;;;;;;;4.2;3.1;;;;;;;;;;;;;
2022/07/09 02:28:37;;;;;;;6.2;3;;;;;;;;;;;;;
2022/07/09 02:31:02;;;;;;;4.7;3;;;;;;;;;;;;;
2022/07/09 02:33:30;;;;;;;5.8;3.2;;;;;;;;;;;;;
2022/07/09 02:35:53;;;;;;;4.2;2.8;;;;;;;;;;;;;
2022/07/09 02:38:21;;;;;;;3.2;2.8;;;;;;;;;;;;;
2022/07/09 02:40:46;;;;;;;3.5;2.8;;;;;;;;;;;;;
2022/07/09 02:43:11;;;;;;;5.5;3.2;;;;;;;;;;;;;
2022/07/09 02:45:36;;;;;;;3.1;2.8;;;;;;;;;;;;;
2022/07/09 02:48:02;;;;;;;5.1;3.1;;;;;;;;;;;;;
2022/07/09 02:50:27;;;;;;;3.8;2.9;;;;;;;;;;;;;
2022/07/09 02:52:52;;;;;;;2.7;2.5;;;;;;;;;;;;;
2022/07/09 02:55:17;;;;;;;4;3;;;;;;;;;;;;;
2022/07/09 02:57:43;;;;;;;6.2;2.9;;;;;;;;;;;;;
2022/07/09 03:00:08;;;;;;;4.1;2.9;;;;;;;;;;;;;
2022/07/09 03:02:36;;;;;;;3.3;2.8;;;;;;;;;;;;;
2022/07/09 03:05:01;;;;;;;4;2.9;;;;;;;;;;;;;
2022/07/09 03:07:26;;;;;;;4.3;3.2;;;;;;;;;;;;;
2022/07/09 03:09:51;;;;;;;5.6;3.2;;;;;;;;;;;;;
2022/07/09 03:12:18;;;;;;;5.4;3.2;;;;;;;;;;;;;
2022/07/09 03:14:42;;;;;;;5.3;3.5;;;;;;;;;;;;;
2022/07/09 03:17:09;;;;;;;5.3;3.5;;;;;;;;;;;;;
2022/07/09 03:19:35;;;;;;;4.9;3.2;;;;;;;;;;;;;
2022/07/09 03:22:01;;;;;;;3.8;3.3;;;;;;;;;;;;;
2022/07/09 03:24:26;;;;;;;4.4;3;;;;;;;;;;;;;
2022/07/09 03:26:51;;;;;;;4.2;3.1;;;;;;;;;;;;;
2022/07/09 03:29:16;;;;;;;6.6;3.7;;;;;;;;;;;;;
2022/07/09 03:31:42;;;;;;;6.8;4.9;;;;;;;;;;;;;
2022/07/09 03:34:07;;;;;;;5.7;3.3;;;;;;;;;;;;;
2022/07/09 03:36:33;;;;;;;18;10.1;;;;;;;;;;;;;
2022/07/09 03:38:58;;;;;;;16.4;10.1;;;;;;;;;;;;;
2022/07/09 03:41:24;;;;;;;9;6;;;;;;;;;;;;;
2022/07/09 03:43:49;;;;;;;5.8;4;;;;;;;;;;;;;
2022/07/09 03:46:17;;;;;;;4.6;3.7;;;;;;;;;;;;;
2022/07/09 03:48:42;;;;;;;6.6;3.6;;;;;;;;;;;;;
2022/07/09 03:51:07;;;;;;;6.7;3.1;;;;;;;;;;;;;
2022/07/09 03:53:32;;;;;;;4.1;3.4;;;;;;;;;;;;;
2022/07/09 03:55:59;;;;;;;5;3;;;;;;;;;;;;;
2022/07/09 03:58:24;;;;;;;5.4;3;;;;;;;;;;;;;
2022/07/09 04:02:31;;;;;;;3.3;3;;;;;;;11.62;88.36426;948.1225;;;;
2022/07/09 04:05:00;;;;;;;3.7;3.1;;;;;;;11.48;88.88574;948.1169;;;;
2022/07/09 04:07:26;;;;;;;4.5;3.1;;;;;;;11.54;88.8877;948.1262;;;;
2022/07/09 04:09:56;;;;;;;6;3.1;;;;;;;11.66;88.30273;948.1464;;;;
2022/07/09 04:12:21;;;;;;;4;3.1;;;;;;;11.68;88.20605;948.1261;;;;
2022/07/09 04:14:50;;;;;;;5.2;3.2;;;;;;;11.72;88.06445;948.1797;;;;
2022/07/09 04:17:16;;;;;;;6.6;3.2;;;;;;;11.72;88.20313;948.0817;;;;
2022/07/09 04:19:44;;;;;;;4.4;2.8;;;;;;;11.78;87.65332;948.1114;;;;
2022/07/09 04:22:09;;;;;;;4.7;2.8;;;;;;;11.76;87.6709;948.2347;;;;
2022/07/09 04:24:36;;;;;;;4;2.9;;;;;;;11.84;87.41211;948.2035;;;;
2022/07/09 04:27:01;;;;;;;4.2;3.2;;;;;;;11.95;87.18359;948.1498;;;;
2022/07/09 04:29:26;;;;;;;5;3.1;;;;;;;12.01;86.45215;948.191;;;;
2022/07/09 04:31:52;;;;;;;4.8;3.2;;;;;;;12;86.64355;948.1987;;;;
2022/07/09 04:34:23;;;;;;;3.2;2.9;;;;;;;11.96;86.73926;948.2244;;;;
2022/07/09 04:36:52;;;;;;;3.8;3.1;;;;;;;11.97;86.79785;948.1998;;;;
2022/07/09 04:39:17;;;;;;;6.2;2.9;;;;;;;11.99;86.40234;948.1915;;;;
2022/07/09 04:41:48;;;;;;;4.2;2.9;;;;;;;11.98;86.30762;948.1688;;;;
2022/07/09 04:44:19;;;;;;;6;3.2;;;;;;;12.06;86.11719;948.1922;;;;
2022/07/09 04:46:49;;;;;;;3.6;3.1;;;;;;;12.14;85.88086;948.1467;;;;
2022/07/09 04:49:20;;;;;;;5.1;3.4;;;;;;;12.17;85.77246;948.1154;;;;
2022/07/09 04:51:45;;;;;;;3.1;2.8;;;;;;;12.26;85.26465;948.1277;;;;
2022/07/09 04:54:13;;;;;;;4.1;2.9;;;;;;;12.31;85.00977;948.1286;;;;
2022/07/09 04:56:38;;;;;;;4;3.3;;;;;;;12.31;85.74316;948.1638;;;;
2022/07/09 04:59:06;;;;;;;4.2;3.2;;;;;;;12.47;84.84668;948.0776;;;;
2022/07/09 05:01:31;;;;;;;5.3;2.7;;;;;;;12.48;84.8252;948.1258;;;;
2022/07/09 05:04:00;;;;;;;3.8;2.8;;;;;;;12.59;84.70898;948.1036;;;;
2022/07/09 05:06:27;;;;;;;4.7;3;;;;;;;12.69;84.32617;948.0258;;;;
2022/07/09 05:09:00;;;;;;;4.5;3.3;;;;;;;12.87;84.24707;948.0427;;;;
2022/07/09 05:11:27;;;;;;;4.1;2.5;;;;;;;13.26;82.87402;948.0615;;;;
2022/07/09 05:13:52;;;;;;;5.2;2.5;;;;;;;13.47;81.16699;948.0272;;;;
2022/07/09 05:16:23;;;;;;;3.6;2.7;;;;;;;13.62;80.35547;948.04;;;;
2022/07/09 05:18:51;;;;;;;4.4;2.8;;;;;;;13.64;80.58887;947.9778;;;;
2022/07/09 05:21:16;;;;;;;3.1;2.5;;;;;;;13.73;80.52539;948.039;;;;
2022/07/09 05:23:43;;;;;;;4.1;2.9;;;;;;;13.96;80.30371;948.011;;;;
2022/07/09 05:26:08;;;;;;;4.8;2.5;;;;;;;13.99;79.70996;947.9745;;;;
2022/07/09 05:28:34;;;;;;;3.4;2.5;;;;;;;14.21;79.83105;948.0198;;;;
2022/07/09 05:30:59;;;;;;;4.5;3.2;;;;;;;14.35;79.7998;948.012;;;;
2022/07/09 05:33:25;;;;;;;5.9;3;;;;;;;14.65;78.70117;948.0776;;;;
2022/07/09 05:35:51;;;;;;;2.7;2.4;;;;;;;14.76;77.56836;948.0217;;;;
2022/07/09 05:38:16;;;;;;;3.7;3;;;;;;;15.02;78.89551;948.0333;;;;
2022/07/09 05:40:47;;;;;;;3.1;2.2;;;;;;;15.3;73.94727;948.0533;;;;
2022/07/09 05:43:17;;;;;;;3.6;2.2;;;;;;;15.88;76.22949;948.0948;;;;
2022/07/09 05:45:52;;;;;;;3.8;2.2;;;;;;;16.49;70.82715;948.0948;;;;
2022/07/09 05:48:22;;;;;;;3;2;;;;;;;16.78;68.3252;948.0935;;;;
2022/07/09 05:50:52;;;;;;;2.6;2;;;;;;;17.03;68.16602;948.0637;;;;
2022/07/09 05:53:23;;;;;;;3.8;2.1;;;;;;;17.09;67.08691;948.038;;;;
2022/07/09 05:55:56;;;;;;;3.3;2.2;;;;;;;17.15;66.21484;948.087;;;;
2022/07/09 05:58:21;;;;;;;3.1;2;;;;;;;17.74;66.03711;948.0859;;;;
2022/07/09 06:00:51;;;;;;;3.8;2.2;;;;;;;17.78;65.10156;948.0432;;;;
2022/07/09 06:03:18;;;;;;;2.5;1.7;;;;;;;17.9;64.10938;948.0422;;;;
2022/07/09 06:05:49;;;;;;;1.8;1.7;;;;;;;17.95;63.76855;948.0486;;;;
2022/07/09 06:08:16;;;;;;;3.1;1.9;;;;;;;17.67;64.87695;948.0681;;;;
2022/07/09 06:10:41;;;;;;;2.5;1.9;;;;;;;17.46;65.4375;948.0262;;;;
2022/07/09 06:13:17;;;;;;;3.8;2;;;;;;;17.09;66.41406;948.0421;;;;
2022/07/09 06:15:46;;;;;;;7.2;2.2;;;;;;;17.39;66.59863;948.0261;;;;
2022/07/09 06:18:12;;;;;;;3.7;1.9;;;;;;;16.73;67.55273;948.0082;;;;
2022/07/09 06:20:40;;;;;;;3.6;2.2;;;;;;;17.02;66.87988;947.9969;;;;
2022/07/09 06:23:08;;;;;;;3.1;1.8;;;;;;;16.81;66.47754;948.0115;;;;
2022/07/09 06:25:34;;;;;;;2.4;1.9;;;;;;;16.76;66.51563;948.0187;;;;
2022/07/09 06:28:00;;;;;;;1.9;1.7;;;;;;;16.99;67.69824;947.9387;;;;
2022/07/09 06:30:25;;;;;;;2.3;1.7;;;;;;;17.28;68.47266;947.9239;;;;
2022/07/09 06:32:56;;;;;;;2.2;1.7;;;;;;;17.58;66.97559;947.9157;;;;
2022/07/09 06:35:23;;;;;;;3;2.3;;;;;;;17.82;66.31641;947.8975;;;;
2022/07/09 06:38:26;;;;;;;2.5;1.7;;;;;;;18.2;64.76953;947.9238;;;;
2022/07/09 06:40:22;;;;;;;1.8;1.5;;;;;;;18.57;62.59082;947.8878;;;;
2022/07/09 06:42:47;;;;;;;2.6;2;;;;;;;18.77;63.74707;947.892;;;;
2022/07/09 06:45:18;;;;;;;5.1;1.7;;;;;;;19.19;60.65332;947.9039;;;;
2022/07/09 06:47:50;;;;;;;3.2;2.1;;;;;;;19.13;61.33203;947.9036;;;;
2022/07/09 06:50:18;;;;;;;3.8;2.2;;;;;;;19.6;60.59277;947.9091;;;;
2022/07/09 06:52:43;;;;;;;3.8;1.9;;;;;;;19.47;61.11035;947.9481;;;;
2022/07/09 06:55:10;;;;;;;3.6;2.1;;;;;;;19.58;59.09766;947.9125;;;;
2022/07/09 06:57:36;;;;;;;2.9;1.8;;;;;;;19.39;59.61035;947.9727;;;;
2022/07/09 07:00:03;;;;;;;3.4;2;;;;;;;19.2;60.13086;947.9313;;;;
2022/07/09 07:02:27;;;;;;;3.8;1.9;;;;;;;19.69;59.41699;947.9286;;;;
2022/07/09 07:04:59;;;;;;;3.1;1.7;;;;;;;19.76;57.67578;947.9191;;;;
2022/07/09 07:07:29;;;;;;;2.4;1.6;;;;;;;21.27;54.80762;947.9139;;;;
2022/07/09 07:10:04;;;;;;;1.7;1.6;;;;;;;23.05;48.91895;947.8713;;;;
2022/07/09 07:12:29;;;;;;;2.3;1.4;;;;;;;24.96;44.83301;947.8695;;;;
2022/07/09 07:15:00;;;;;;;2.6;1.5;;;;;;;24.52;44.08301;947.8284;;;;
2022/07/09 07:17:25;;;;;;;2.3;1.5;;;;;;;23.79;44.31738;947.8358;;;;
2022/07/09 07:19:56;;;;;;;2.4;1.7;;;;;;;23.57;46.62402;947.8307;;;;
2022/07/09 07:22:21;;;;;;;2.8;1.9;;;;;;;22.79;47.87988;947.7852;;;;
2022/07/09 07:24:52;;;;;;;3.8;1.8;;;;;;;22.68;49.93555;947.76;;;;
2022/07/09 07:27:25;;;;;;;2.5;1.6;;;;;;;22.63;47.41699;947.6783;;;;
2022/07/09 07:29:52;;;;;;;3.4;1.4;;;;;;;23.23;46.07031;947.6436;;;;
2022/07/09 07:32:17;;;;;;;3.1;1.6;;;;;;;23;47.38672;947.7037;;;;
2022/07/09 07:34:46;;;;;;;2.3;1.6;;;;;;;23.21;47.99609;947.7023;;;;
2022/07/09 07:37:11;;;;;;;2.3;1.6;;;;;;;23.5;45.51074;947.6738;;;;
2022/07/09 07:39:40;;;;;;;2.3;1.7;;;;;;;22.69;49.73535;947.6365;;;;
2022/07/09 07:42:11;;;;;;;3.3;1.8;;;;;;;21.98;49.50391;947.6361;;;;
2022/07/09 07:44:41;;;;;;;2.6;1.8;;;;;;;22.24;49.06445;947.6171;;;;
2022/07/09 07:47:12;;;;;;;2.5;1.5;;;;;;;23.44;48.41992;947.6208;;;;
2022/07/09 07:49:41;;;;;;;2.8;1.4;;;;;;;23.4;46.85254;947.615;;;;
2022/07/09 07:52:06;;;;;;;3.6;2;;;;;;;24.05;46.04883;947.5245;;;;
2022/07/09 07:54:36;;;;;;;2.2;1.4;;;;;;;24.59;45.61035;947.5812;;;;
2022/07/09 07:57:01;;;;;;;3.4;1.6;;;;;;;25.56;41.77539;947.5326;;;;
2022/07/09 07:59:28;;;;;;;2.6;1.3;;;;;;;25.8;40.4502;947.5051;;;;
2022/07/09 08:01:54;;;;;;;2.4;1.2;;;;;;;26.11;38.78613;947.4833;;;;
2022/07/09 08:04:22;;;;;;;2.6;1.5;;;;;;;26.16;39.50098;947.4594;;;;
2022/07/09 08:06:47;;;;;;;2;1.4;;;;;;;25.42;42.625;947.505;;;;
2022/07/09 08:09:18;;;;;;;3.3;1.3;;;;;;;24.88;43.33984;947.4221;;;;
2022/07/09 08:11:47;;;;;;;2.2;1.4;;;;;;;24.82;43.62891;947.4709;;;;
2022/07/09 08:14:16;;;;;;;1.8;1.2;;;;;;;24.93;42.49512;947.4564;;;;
2022/07/09 08:16:41;;;;;;;2.4;1.4;;;;;;;25.1;42.64063;947.3856;;;;
2022/07/09 08:19:09;;;;;;;1.6;1.2;;;;;;;23.83;43.88477;947.4601;;;;
2022/07/09 08:21:34;;;;;;;3.1;1.7;;;;;;;24.46;44.40625;947.4135;;;;
2022/07/09 08:24:04;;;;;;;2.4;1.4;;;;;;;23.22;45.10645;947.3931;;;;
2022/07/09 08:26:27;;;;;;;2.5;1.4;;;;;;;23.3;45.50098;947.4217;;;;
2022/07/09 08:28:52;;;;;;;2.9;1.8;;;;;;;22.54;47.71191;947.4;;;;
2022/07/09 08:31:18;;;;;;;3.5;1.6;;;;;;;22.34;48.8291;947.4023;;;;
2022/07/09 08:33:43;;;;;;;1.9;1.7;;;;;;;21.37;49.77637;947.3911;;;;
2022/07/09 08:36:12;;;;;;;3.5;1.9;;;;;;;22.09;50.96875;947.3596;;;;
2022/07/09 08:38:37;;;;;;;3.8;1.7;;;;;;;22.34;51.0459;947.3439;;;;
2022/07/09 08:41:05;;;;;;;3.6;1.6;;;;;;;22.78;49.71094;947.3145;;;;
2022/07/09 08:43:30;;;;;;;4;1.9;;;;;;;22.68;47.37598;947.2687;;;;
2022/07/09 08:46:01;;;;;;;3.1;1.7;;;;;;;22.65;47.86523;947.2971;;;;
2022/07/09 08:48:31;;;;;;;2.9;1.5;;;;;;;22.37;50.87305;947.3133;;;;
2022/07/09 08:50:57;;;;;;;2.8;1.7;;;;;;;22;53.90039;947.3113;;;;
2022/07/09 08:53:22;;;;;;;1.8;1.5;;;;;;;22.26;49.68848;947.2938;;;;
2022/07/09 08:55:47;;;;;;;2.4;1.4;;;;;;;21.87;50.9209;947.2766;;;;
2022/07/09 08:58:15;;;;;;;1.7;1.5;;;;;;;21.57;54.82129;947.2566;;;;
2022/07/09 09:00:40;;;;;;;2.9;1.7;;;;;;;21.39;55.18555;947.2708;;;;
2022/07/09 09:03:05;;;;;;;1.8;1.4;;;;;;;21.67;53.03027;947.2127;;;;
2022/07/09 09:05:34;;;;;;;1.6;1.3;;;;;;;21.88;54.83691;947.1635;;;;
2022/07/09 09:07:59;;;;;;;2.5;1.7;;;;;;;21.93;50.66016;947.1511;;;;
2022/07/09 09:10:30;;;;;;;2.3;1.3;;;;;;;21.96;52.46777;947.1959;;;;
2022/07/09 09:12:55;;;;;;;2.5;1.2;;;;;;;22.71;49.71484;947.1478;;;;
2022/07/09 09:15:21;;;;;;;2.2;1.4;;;;;;;23.5;53.07227;947.1631;;;;
2022/07/09 09:17:54;;;;;;;3.1;1.1;;;;;;;24.23;49.42578;947.0986;;;;
2022/07/09 09:20:19;;;;;;;2.2;1.1;;;;;;;24.67;44.2627;947.0634;;;;
2022/07/09 09:22:45;;;;;;;4.8;1.8;;;;;;;25.46;43.6084;947.0391;;;;
2022/07/09 09:25:10;;;;;;;4.4;1.2;;;;;;;25.34;41.93066;946.9818;;;;
2022/07/09 09:27:39;;;;;;;2.5;1;;;;;;;24.94;42.18848;947.1051;;;;
2022/07/09 09:30:15;;;;;;;;;;;;;;;;;;;;;
2022/07/09 09:32:29;;;;;;;1.6;1;;;;;;;24.5;42.81934;947.0806;;;;
2022/07/09 09:34:54;;;;;;;3.8;1.4;;;;;;;23.84;45.32227;947.027;;;;
2022/07/09 09:37:23;;;;;;;2.6;1.6;;;;;;;23.96;44.2627;947.0212;;;;
2022/07/09 09:39:48;;;;;;;2.1;1.4;;;;;;;23.64;46.07715;946.9689;;;;
2022/07/09 09:42:15;;;;;;;2.1;1.1;;;;;;;23.72;43.83887;947.0001;;;;
2022/07/09 09:44:40;;;;;;;3;1.3;;;;;;;23.76;44.9834;946.9274;;;;
2022/07/09 09:47:05;;;;;;;2.4;1.5;;;;;;;23.64;44.69043;946.9573;;;;
2022/07/09 09:49:33;;;;;;;2.8;1.3;;;;;;;23.37;45.3916;946.9393;;;;
2022/07/09 09:51:58;;;;;;;2.8;1.3;;;;;;;23.75;45.78223;946.8326;;;;
2022/07/09 09:54:27;;;;;;;2.1;1.2;;;;;;;24.42;45.03906;946.8058;;;;
2022/07/09 09:56:52;;;;;;;2.4;1.2;;;;;;;25.5;41.37891;946.6528;;;;
2022/07/09 09:59:22;;;;;;;3.4;1.2;;;;;;;25.89;43.2959;946.7195;;;;
2022/07/09 10:01:51;;;;;;;2.5;1.2;;;;;;;26.67;41.2041;946.6677;;;;
2022/07/09 10:04:16;;;;;;;3;1;;;;;;;26.87;40.53418;946.6741;;;;
2022/07/09 10:06:42;;;;;;;2;1.1;;;;;;;26.84;41.48047;946.6627;;;;
2022/07/09 10:09:07;;;;;;;2.4;1.2;;;;;;;25.66;39.92871;946.627;;;;
2022/07/09 10:11:36;;;;;;;2.2;1.1;;;;;;;24.92;42.37695;946.6166;;;;
2022/07/09 10:14:01;;;;;;;1.6;1.1;;;;;;;24.22;43.66406;946.686;;;;
2022/07/09 10:16:26;;;;;;;1.1;1;;;;;;;23.62;47.67578;946.717;;;;
2022/07/09 10:18:53;;;;;;;3;1.3;;;;;;;23.87;44.5127;946.6975;;;;
2022/07/09 10:21:18;;;;;;;2.9;1.3;;;;;;;24.16;43.24609;946.6226;;;;
2022/07/09 10:23:43;;;;;;;4.3;1.4;;;;;;;23.93;45.18945;946.6462;;;;
2022/07/09 10:26:08;;;;;;;2.5;1;;;;;;;23.7;45.4248;946.6166;;;;
2022/07/09 10:28:33;;;;;;;3.4;1.4;;;;;;;24.08;43.48535;946.5649;;;;
2022/07/09 10:30:59;;;;;;;1.5;1;;;;;;;24.17;45.81445;946.6027;;;;
2022/07/09 10:33:27;;;;;;;1.9;1.1;;;;;;;24.06;45.90918;946.6387;;;;
2022/07/09 10:35:52;;;;;;;1.8;1.3;;;;;;;24.63;44.88281;946.5912;;;;
2022/07/09 10:38:18;;;;;;;1.9;1;;;;;;;24.14;45.63379;946.5891;;;;
2022/07/09 10:40:43;;;;;;;2.8;1.2;;;;;;;24.18;46.96973;946.5872;;;;
2022/07/09 10:43:09;;;;;;;1.9;0.8;;;;;;;24.35;44.72559;946.6175;;;;
2022/07/09 10:45:34;;;;;;;2.3;1.1;;;;;;;24.38;45.72949;946.5873;;;;
2022/07/09 10:47:59;;;;;;;1.4;1;;;;;;;24.34;47.89355;946.5598;;;;
2022/07/09 10:50:24;;;;;;;2.1;1.1;;;;;;;24.17;42.69336;946.5198;;;;
2022/07/09 10:52:51;;;;;;;2.3;1.2;;;;;;;23.89;46.20996;946.6002;;;;
2022/07/09 10:55:19;;;;;;;1.5;0.8;;;;;;;24.16;45.69629;946.5178;;;;
2022/07/09 10:57:44;;;;;;;1.5;0.7;;;;;;;24.4;41.9375;946.5142;;;;
2022/07/09 11:00:10;;;;;;;1.4;0.8;;;;;;;24.42;44.52051;946.4613;;;;
2022/07/09 11:02:34;;;;;;;2.3;1.1;;;;;;;24.1;43.22852;946.4641;;;;
2022/07/09 11:05:03;;;;;;;1.4;0.8;;;;;;;23.7;47.87207;946.4328;;;;
2022/07/09 11:07:35;;;;;;;1.3;0.8;;;;;;;23.04;46.0625;946.4731;;;;
2022/07/09 11:09:57;;;;;;;8.2;0.9;;;;;;;23.1;44.34082;946.3596;;;;
2022/07/09 11:12:26;;;;;;;1.6;1;;;;;;;23.69;44.04785;946.3989;;;;
2022/07/09 11:14:52;;;;;;;1.1;0.9;;;;;;;23.97;42.60449;946.361;;;;
2022/07/09 11:17:18;;;;;;;2.1;1;;;;;;;23.13;46.5293;946.4205;;;;
2022/07/09 11:19:43;;;;;;;1.1;0.9;;;;;;;23.55;46.19727;946.4023;;;;
2022/07/09 11:22:09;;;;;;;2.1;1;;;;;;;23.94;42.68262;946.2864;;;;
2022/07/09 11:24:34;;;;;;;1;0.9;;;;;;;23.84;41.89648;946.2999;;;;
2022/07/09 11:26:59;;;;;;;1.8;0.9;;;;;;;24.08;42.23828;946.3011;;;;
2022/07/09 11:29:28;;;;;;;1.8;1;;;;;;;24.44;44.01563;946.2919;;;;
2022/07/09 11:31:53;;;;;;;1.4;0.8;;;;;;;24.81;41.02148;946.2475;;;;
2022/07/09 11:34:23;;;;;;;0.7;0.7;;;;;;;24.88;43.51563;946.2104;;;;
2022/07/09 11:36:48;;;;;;;1;0.9;;;;;;;24.84;42.76953;946.2249;;;;
2022/07/09 11:39:14;;;;;;;1.4;0.8;;;;;;;24.88;39.80078;946.1827;;;;
2022/07/09 11:41:40;;;;;;;3.6;1;;;;;;;24.4;40.37012;946.1747;;;;
2022/07/09 11:44:05;;;;;;;1.2;0.9;;;;;;;23.99;47.18555;946.2401;;;;
2022/07/09 11:46:36;;;;;;;1.9;1;;;;;;;23.83;45.52051;946.1772;;;;
2022/07/09 11:49:01;;;;;;;1.1;0.9;;;;;;;24.35;43.0166;946.1616;;;;
2022/07/09 11:51:26;;;;;;;1.1;1;;;;;;;24.09;45.72363;946.1951;;;;
2022/07/09 11:53:56;;;;;;;1.2;1;;;;;;;24.24;43.68945;946.1428;;;;
2022/07/09 11:56:27;;;;;;;2.8;1;;;;;;;23.77;48.12695;946.1258;;;;
2022/07/09 11:58:58;;;;;;;1.3;1.1;;;;;;;24.27;46.16602;946.031;;;;
2022/07/09 12:01:24;;;;;;;1.9;0.9;;;;;;;23.98;46.03027;946.1044;;;;
2022/07/09 12:03:53;;;;;;;2.9;0.9;;;;;;;24.01;46.38672;945.9906;;;;
2022/07/09 12:06:18;;;;;;;1.6;0.8;;;;;;;23.99;43.37109;945.9397;;;;
2022/07/09 12:08:46;;;;;;;0.8;0.7;;;;;;;23.82;44.17773;945.8723;;;;
2022/07/09 12:11:11;;;;;;;2.3;1.2;;;;;;;23.94;42.4707;945.8731;;;;
2022/07/09 12:13:39;;;;;;;1.2;0.9;;;;;;;24.33;42.95605;945.8773;;;;
2022/07/09 12:16:05;;;;;;;1;0.7;;;;;;;24.19;41.3877;945.8331;;;;
2022/07/09 12:18:32;;;;;;;1.7;0.8;;;;;;;24.33;43.12109;945.8317;;;;
2022/07/09 12:20:56;;;;;;;2.2;0.8;;;;;;;24.29;45.33203;945.8142;;;;
2022/07/09 12:23:23;;;;;;;2.6;1;;;;;;;24.49;42.34668;945.8083;;;;
2022/07/09 12:25:48;;;;;;;0.8;0.8;;;;;;;24.85;41.87402;945.8162;;;;
2022/07/09 12:28:16;;;;;;;0.9;0.8;;;;;;;24.22;44.11133;945.7222;;;;
2022/07/09 12:30:41;;;;;;;1.9;1;;;;;;;23.77;45.49219;945.7475;;;;
2022/07/09 12:33:08;;;;;;;1.4;0.9;;;;;;;23.9;44.33887;945.6505;;;;
2022/07/09 12:35:33;;;;;;;1.4;0.9;;;;;;;23.72;45.16797;945.741;;;;
2022/07/09 12:38:02;;;;;;;2.6;1.1;;;;;;;23.55;45.60938;945.7405;;;;
2022/07/09 12:40:33;;;;;;;2.7;1.2;;;;;;;23.2;47.52539;945.817;;;;
2022/07/09 12:43:00;;;;;;;2.5;1.1;;;;;;;22.33;47.87695;945.7592;;;;
2022/07/09 12:45:25;;;;;;;3;1.2;;;;;;;22.35;49.31152;945.7969;;;;
2022/07/09 12:47:56;;;;;;;1.3;1;;;;;;;22.38;49.33789;945.8318;;;;
2022/07/09 12:50:26;;;;;;;1.2;1.1;;;;;;;21.98;48.93066;945.695;;;;
2022/07/09 12:52:57;;;;;;;2.2;1.3;;;;;;;21.76;49.60938;945.6754;;;;
2022/07/09 12:55:26;;;;;;;2.5;1.1;;;;;;;22.06;50.9082;945.728;;;;
2022/07/09 12:57:51;;;;;;;1.7;1.2;;;;;;;21.93;50.77734;945.6653;;;;
2022/07/09 13:00:22;;;;;;;2.8;1.3;;;;;;;22.3;49.24707;945.6763;;;;
2022/07/09 13:02:47;;;;;;;2.3;1.3;;;;;;;22.79;52.15332;945.6021;;;;
2022/07/09 13:05:16;;;;;;;1.7;1;;;;;;;23.27;47.00293;945.514;;;;
2022/07/09 13:07:41;;;;;;;1.6;1.2;;;;;;;23.26;44.92188;945.5697;;;;
2022/07/09 13:10:10;;;;;;;2;1.2;;;;;;;23.65;51.78516;945.5486;;;;
2022/07/09 13:12:39;;;;;;;2.3;1.1;;;;;;;23.8;47.45898;945.3929;;;;
2022/07/09 13:15:03;;;;;;;2.4;1.1;;;;;;;23.88;48.04492;945.3599;;;;
2022/07/09 13:17:33;;;;;;;1;0.9;;;;;;;23.56;46.56348;945.3466;;;;
2022/07/09 13:20:10;;;;;;;1;1;;;;;;;23.46;45.0957;945.312;;;;
2022/07/09 13:22:40;;;;;;;1.1;0.9;;;;;;;23.44;45.73926;945.3218;;;;
2022/07/09 13:25:05;;;;;;;1.8;0.9;;;;;;;23.73;46.74609;945.3073;;;;
2022/07/09 13:27:33;;;;;;;1.3;1.1;;;;;;;24.13;43.44336;945.2531;;;;
2022/07/09 13:29:58;;;;;;;1.8;1;;;;;;;24.11;43.98242;945.248;;;;
2022/07/09 13:32:26;;;;;;;1.3;1.1;;;;;;;24.19;43.57813;945.2056;;;;
2022/07/09 13:34:51;;;;;;;0.9;0.8;;;;;;;23.8;43.46973;945.1887;;;;
2022/07/09 13:37:33;;;;;;;1.7;1;;;;;;;23.86;46.34766;945.1514;;;;
2022/07/09 13:40:01;;;;;;;1.6;1;;;;;;;24.42;43.12891;945.1083;;;;
2022/07/09 13:42:26;;;;;;;0.7;0.7;;;;;;;24.55;40.21875;945.048;;;;
2022/07/09 13:44:56;;;;;;;1.1;1;;;;;;;24.83;40.26855;945.0404;;;;
2022/07/09 13:47:21;;;;;;;2;0.8;;;;;;;24.35;40.20117;945.0308;;;;
2022/07/09 13:49:51;;;;;;;2.2;1.1;;;;;;;24.51;40.25098;944.9256;;;;
2022/07/09 13:52:16;;;;;;;1.3;0.9;;;;;;;24.62;42.54785;944.9485;;;;
2022/07/09 13:54:46;;;;;;;2.2;1;;;;;;;24.27;41.78418;944.906;;;;
2022/07/09 13:57:12;;;;;;;1.4;0.9;;;;;;;24.1;42.09863;944.8812;;;;
2022/07/09 13:59:36;;;;;;;1.2;0.8;;;;;;;24.33;43.71094;944.8441;;;;
2022/07/09 14:02:05;;;;;;;0.9;0.8;;;;;;;24.69;41.32813;944.7567;;;;
2022/07/09 14:04:29;;;;;;;1.9;1.1;;;;;;;24.95;42.33203;944.7958;;;;
2022/07/09 14:06:55;;;;;;;1.5;0.8;;;;;;;25.23;40.95313;944.7823;;;;
2022/07/09 14:09:20;;;;;;;1.3;1;;;;;;;25.4;39.63379;944.7274;;;;
2022/07/09 14:11:47;;;;;;;1.5;0.9;;;;;;;25.54;40.00098;944.7313;;;;
2022/07/09 14:14:12;;;;;;;1.8;1;;;;;;;25.71;40.4541;944.637;;;;
2022/07/09 14:16:40;;;;;;;0.8;0.8;;;;;;;25.9;40.0332;944.7342;;;;
2022/07/09 14:19:09;;;;;;;1.5;1;;;;;;;26;39.8418;944.6837;;;;
2022/07/09 14:21:39;;;;;;;1.5;1.2;;;;;;;25.79;39.1377;944.6429;;;;
2022/07/09 14:24:09;;;;;;;1.4;1;;;;;;;25.63;39.63086;944.5932;;;;
2022/07/09 14:26:34;;;;;;;1.4;1;;;;;;;24.75;39.58789;944.5754;;;;
2022/07/09 14:29:03;;;;;;;1.8;1;;;;;;;24.15;42.91504;944.5247;;;;
2022/07/09 14:31:28;;;;;;;1.3;1;;;;;;;24.01;42.34863;944.5577;;;;
2022/07/09 14:33:57;;;;;;;1.3;1.1;;;;;;;24.06;41.70605;944.593;;;;
2022/07/09 14:36:22;;;;;;;2.1;1;;;;;;;24.06;43.67188;944.5944;;;;
2022/07/09 14:38:47;;;;;;;3.2;1.1;;;;;;;24.11;45.10156;944.5878;;;;
2022/07/09 14:41:15;;;;;;;2.7;1.2;;;;;;;24.16;44.87109;944.5952;;;;
2022/07/09 14:43:40;;;;;;;1;1;;;;;;;24.15;44.87012;944.5769;;;;
2022/07/09 14:46:05;;;;;;;1.3;0.9;;;;;;;24.18;45.56934;944.5578;;;;
2022/07/09 14:48:33;;;;;;;1.6;1.1;;;;;;;24.31;45.08691;944.568;;;;
2022/07/09 14:50:58;;;;;;;1.8;1;;;;;;;24.32;44.89941;944.546;;;;
2022/07/09 14:53:26;;;;;;;2.6;1.1;;;;;;;24.21;44.29883;944.5253;;;;
2022/07/09 14:55:51;;;;;;;1.2;1;;;;;;;24.13;44.62109;944.5337;;;;
2022/07/09 14:58:17;;;;;;;2;1.2;;;;;;;24.13;44.86914;944.541;;;;
2022/07/09 15:00:42;;;;;;;1.9;1.1;;;;;;;23.83;44.22559;944.4511;;;;
2022/07/09 15:03:12;;;;;;;2.1;1;;;;;;;23.91;46.07031;944.4023;;;;
2022/07/09 15:05:40;;;;;;;1.9;1.2;;;;;;;23.99;45.80762;944.485;;;;
2022/07/09 15:08:05;;;;;;;1.9;1.2;;;;;;;24.13;45.30469;944.3375;;;;
2022/07/09 15:10:37;;;;;;;1.9;1.1;;;;;;;24.3;44.62598;944.3356;;;;
2022/07/09 15:13:09;;;;;;;1.8;0.8;;;;;;;24.55;44.61621;944.3442;;;;
2022/07/09 15:15:44;;;;;;;1.6;0.9;;;;;;;24.68;43.98047;944.2813;;;;
2022/07/09 15:18:14;;;;;;;1.8;0.9;;;;;;;24.87;44.2002;944.2422;;;;
2022/07/09 15:20:40;;;;;;;1.6;0.9;;;;;;;24.6;44.04395;944.2758;;;;
2022/07/09 15:23:04;;;;;;;1.1;0.9;;;;;;;24.12;44.92578;944.2541;;;;
2022/07/09 15:25:30;;;;;;;2.1;1.1;;;;;;;23.86;45.07617;944.329;;;;
2022/07/09 15:27:55;;;;;;;1.4;0.9;;;;;;;23.36;46.68359;944.2816;;;;
2022/07/09 15:30:22;;;;;;;1.1;0.9;;;;;;;23.4;48.7207;944.278;;;;
2022/07/09 15:32:49;;;;;;;1.3;0.8;;;;;;;23.52;44.63086;944.2502;;;;
2022/07/09 15:35:14;;;;;;;2;1.1;;;;;;;23.47;46.1543;944.2648;;;;
2022/07/09 15:37:43;;;;;;;1.6;0.9;;;;;;;23.72;45.15723;944.2639;;;;
2022/07/09 15:40:15;;;;;;;2.1;0.9;;;;;;;23.81;46.03613;944.2553;;;;
2022/07/09 15:42:40;;;;;;;1.7;1.1;;;;;;;23.69;47.77734;944.278;;;;